Time;durP1;ratioP1;P1;durP2;ratioP2;P2;SDS_P1;SDS_P2;PMS_P1;PMS_P2;Temp;Humidity;BMP_temperature;BMP_pressure;BME280_temperature;BME280_humidity;BME280_pressure;Samples;Min_cycle;Max_cycle;Signal;HPM_P1;HPM_P2
2022/02/26 00:01:27;;;;;;;39.33;16.57;;;0.00;99.90;;;;;;5030104;28;20575;-68
2022/02/26 00:04:00;;;;;;;42.90;18.23;;;-0.10;99.90;;;;;;5043160;28;20216;-69
2022/02/26 00:06:29;;;;;;;42.67;17.47;;;-0.10;99.90;;;;;;5028426;28;20219;-68
2022/02/26 00:08:57;;;;;;;43.27;18.17;;;-0.10;99.90;;;;;;5023574;28;20234;-68
2022/02/26 00:11:26;;;;;;;39.27;17.33;;;-0.20;99.90;;;;;;5013384;28;20193;-69
2022/02/26 00:13:55;;;;;;;37.43;16.50;;;-0.30;99.90;;;;;;5028690;28;20289;-68
2022/02/26 00:16:23;;;;;;;50.17;20.47;;;-0.40;99.90;;;;;;5020581;28;20205;-68
2022/02/26 00:18:52;;;;;;;39.70;19.17;;;-0.40;99.90;;;;;;5037236;28;20225;-69
2022/02/26 00:21:22;;;;;;;49.40;19.77;;;-0.40;99.90;;;;;;5030520;28;20249;-68
2022/02/26 00:23:50;;;;;;;42.80;17.90;;;-0.50;99.90;;;;;;5014234;28;20202;-68
2022/02/26 00:26:22;;;;;;;42.17;16.93;;;-0.50;99.90;;;;;;5021582;28;20201;-69
2022/02/26 00:28:50;;;;;;;46.63;17.73;;;-0.50;99.90;;;;;;5030523;28;20228;-68
2022/02/26 00:31:19;;;;;;;38.33;17.47;;;-0.40;99.90;;;;;;5020662;28;20220;-68
2022/02/26 00:33:48;;;;;;;44.83;17.07;;;-0.30;99.90;;;;;;5027384;28;20256;-68
2022/02/26 00:36:16;;;;;;;44.60;17.47;;;-0.30;99.90;;;;;;5023907;28;20287;-68
2022/02/26 00:38:47;;;;;;;44.60;16.83;;;-0.20;99.90;;;;;;5032226;28;20201;-69
2022/02/26 00:41:15;;;;;;;36.60;16.60;;;-0.10;99.90;;;;;;5026116;28;20218;-69
2022/02/26 00:43:46;;;;;;;38.17;17.07;;;-0.10;99.90;;;;;;5029219;28;20193;-69
2022/02/26 00:46:15;;;;;;;38.40;16.73;;;-0.10;99.90;;;;;;5011386;28;20241;-68
2022/02/26 00:51:30;;;;;;;38.60;17.20;;;-0.20;99.90;;;;;;5022474;28;20216;-68
2022/02/26 00:54:00;;;;;;;45.27;17.13;;;-0.30;99.90;;;;;;5036851;28;20231;-69
2022/02/26 00:56:29;;;;;;;43.83;17.57;;;-0.30;99.90;;;;;;5032313;28;20284;-68
2022/02/26 00:58:58;;;;;;;42.43;17.07;;;-0.30;99.90;;;;;;5030301;28;20839;-68
2022/02/26 01:01:26;;;;;;;36.10;17.33;;;-0.40;99.90;;;;;;5024370;28;20300;-68
2022/02/26 01:03:54;;;;;;;48.47;18.80;;;-0.50;99.90;;;;;;5031937;28;20212;-68
2022/02/26 01:06:24;;;;;;;50.63;20.67;;;-0.50;99.90;;;;;;5007452;28;20213;-68
2022/02/26 01:08:52;;;;;;;47.13;19.77;;;-0.50;99.90;;;;;;5040168;28;20233;-69
2022/02/26 01:11:22;;;;;;;44.00;19.67;;;-0.50;99.90;;;;;;5021510;28;20205;-68
2022/02/26 01:13:50;;;;;;;49.93;20.10;;;-0.50;99.90;;;;;;5026434;28;20533;-68
2022/02/26 01:16:19;;;;;;;47.27;20.70;;;-0.40;99.90;;;;;;5028668;28;20716;-69
2022/02/26 01:18:47;;;;;;;45.73;21.67;;;-0.40;99.90;;;;;;5026412;28;20243;-68
2022/02/26 01:21:16;;;;;;;50.97;21.10;;;-0.40;99.90;;;;;;5028136;28;20220;-68
2022/02/26 01:23:45;;;;;;;38.77;20.27;;;-0.40;99.90;;;;;;5028373;28;20274;-68
2022/02/26 01:26:13;;;;;;;52.30;19.00;;;-0.50;99.90;;;;;;5029005;28;20731;-69
2022/02/26 01:28:43;;;;;;;39.17;19.83;;;-0.50;99.90;;;;;;5019471;28;20299;-69
2022/02/26 01:31:13;;;;;;;48.10;20.80;;;-0.60;99.90;;;;;;5025596;28;20192;-68
2022/02/26 01:33:41;;;;;;;43.43;19.03;;;-0.60;99.90;;;;;;5029631;28;20638;-67
2022/02/26 01:36:10;;;;;;;41.40;17.80;;;-0.70;99.90;;;;;;5015619;28;20836;-68
2022/02/26 01:38:39;;;;;;;41.13;17.53;;;-0.70;99.90;;;;;;5027925;28;20209;-68
2022/02/26 01:41:08;;;;;;;42.37;18.23;;;-0.80;99.90;;;;;;5026166;28;20280;-68
2022/02/26 01:43:37;;;;;;;40.87;17.83;;;-0.70;99.90;;;;;;5029402;28;20202;-68
2022/02/26 01:46:10;;;;;;;42.30;18.00;;;-0.70;99.90;;;;;;5023010;28;20575;-68
2022/02/26 01:48:39;;;;;;;51.13;18.00;;;-0.70;99.90;;;;;;5025512;28;20281;-68
2022/02/26 01:51:10;;;;;;;42.17;17.63;;;-0.70;99.90;;;;;;5018737;28;20217;-68
2022/02/26 01:53:39;;;;;;;44.37;19.37;;;-0.70;99.90;;;;;;5033607;28;20587;-68
2022/02/26 01:56:10;;;;;;;45.30;19.83;;;-0.80;99.90;;;;;;5026294;28;20190;-68
2022/02/26 01:58:39;;;;;;;41.53;19.33;;;-0.80;99.90;;;;;;5027560;28;20215;-68
2022/02/26 02:01:11;;;;;;;53.47;20.27;;;-0.80;99.90;;;;;;5025337;28;20255;-68
2022/02/26 02:03:40;;;;;;;46.70;21.73;;;-0.80;99.90;;;;;;5038238;28;20272;-68
2022/02/26 02:06:12;;;;;;;46.33;21.97;;;-0.80;99.90;;;;;;5032116;28;20243;-68
2022/02/26 02:08:41;;;;;;;56.40;20.67;;;-0.80;99.90;;;;;;5028403;28;20257;-68
2022/02/26 02:11:10;;;;;;;53.43;21.77;;;-0.80;99.90;;;;;;5011292;28;20185;-68
2022/02/26 02:13:40;;;;;;;42.87;20.60;;;-0.90;99.90;;;;;;5032702;28;20655;-68
2022/02/26 02:16:10;;;;;;;46.27;20.10;;;-1.00;99.90;;;;;;5024057;28;20671;-68
2022/02/26 02:18:38;;;;;;;55.90;20.20;;;-1.10;99.90;;;;;;5036170;28;20200;-68
2022/02/26 02:21:07;;;;;;;42.83;19.63;;;-1.20;99.90;;;;;;5027148;28;20260;-68
2022/02/26 02:23:37;;;;;;;49.53;19.03;;;-1.30;99.90;;;;;;5025198;28;20209;-68
2022/02/26 02:26:05;;;;;;;39.47;19.70;;;-1.30;99.90;;;;;;5025548;28;20205;-68
2022/02/26 02:28:34;;;;;;;49.80;18.87;;;-1.30;99.90;;;;;;5027582;28;20232;-68
2022/02/26 02:31:02;;;;;;;37.40;18.17;;;-1.40;99.90;;;;;;5031576;28;20252;-68
2022/02/26 02:33:38;;;;;;;43.20;19.63;;;-1.50;99.90;;;;;;5016387;28;20200;-68
2022/02/26 02:36:07;;;;;;;46.37;20.13;;;-1.50;99.90;;;;;;5038684;28;20635;-68
2022/02/26 02:38:37;;;;;;;45.13;19.63;;;-1.50;99.90;;;;;;5027371;28;20256;-68
2022/02/26 02:41:06;;;;;;;44.47;19.00;;;-1.40;99.90;;;;;;5035022;28;20263;-67
2022/02/26 02:43:35;;;;;;;43.90;19.43;;;-1.40;99.90;;;;;;5034941;28;20639;-68
2022/02/26 02:46:04;;;;;;;54.00;21.17;;;-1.40;99.90;;;;;;5022011;28;20193;-68
2022/02/26 02:48:33;;;;;;;83.33;26.47;;;-1.40;99.90;;;;;;5035332;28;20755;-68
2022/02/26 02:51:02;;;;;;;76.73;26.30;;;-1.40;99.90;;;;;;5033173;28;20762;-68
2022/02/26 02:53:30;;;;;;;92.77;28.10;;;-1.40;99.90;;;;;;5027422;28;20804;-68
2022/02/26 02:56:00;;;;;;;59.80;24.73;;;-1.40;99.90;;;;;;5029088;28;20213;-67
2022/02/26 02:58:34;;;;;;;72.17;25.30;;;-1.40;99.90;;;;;;5033012;28;20537;-67
2022/02/26 03:01:02;;;;;;;78.87;26.27;;;-1.40;99.90;;;;;;5029559;28;20260;-68
2022/02/26 03:03:31;;;;;;;75.90;24.30;;;-1.50;99.90;;;;;;5033010;28;20201;-68
2022/02/26 03:06:00;;;;;;;58.43;21.90;;;-1.60;99.90;;;;;;5031652;28;20210;-67
2022/02/26 03:08:28;;;;;;;66.50;25.93;;;-1.60;99.90;;;;;;5023294;28;20615;-67
2022/02/26 03:10:58;;;;;;;93.50;27.07;;;-1.70;99.90;;;;;;5023362;28;20568;-68
2022/02/26 03:13:29;;;;;;;103.97;29.53;;;-1.70;99.90;;;;;;5028081;28;20269;-67
2022/02/26 03:15:58;;;;;;;89.73;27.90;;;-1.70;99.90;;;;;;5024638;28;20722;-67
2022/02/26 03:18:27;;;;;;;77.97;26.50;;;-1.60;99.90;;;;;;5027784;28;20205;-67
2022/02/26 03:20:56;;;;;;;74.73;26.00;;;-1.50;99.90;;;;;;5024176;28;20256;-67
2022/02/26 03:23:24;;;;;;;77.77;26.60;;;-1.50;99.90;;;;;;5027785;28;20716;-67
2022/02/26 03:25:53;;;;;;;62.20;24.50;;;-1.60;99.90;;;;;;5027729;28;20216;-68
2022/02/26 03:28:22;;;;;;;56.10;22.97;;;-1.60;99.90;;;;;;5030113;28;20713;-67
2022/02/26 03:30:52;;;;;;;53.97;22.53;;;-1.60;99.90;;;;;;5025171;28;20236;-68
2022/02/26 03:33:21;;;;;;;46.67;22.20;;;-1.50;99.90;;;;;;5013958;28;20271;-67
2022/02/26 03:35:50;;;;;;;51.93;22.27;;;-1.50;99.90;;;;;;5031491;28;20737;-67
2022/02/26 03:38:18;;;;;;;65.73;23.90;;;-1.50;99.90;;;;;;5031103;28;20255;-68
2022/02/26 03:40:47;;;;;;;54.17;23.60;;;-1.50;99.90;;;;;;5029352;28;20664;-67
2022/02/26 03:43:15;;;;;;;52.00;22.03;;;-1.50;99.90;;;;;;5027545;28;20234;-67
2022/02/26 03:45:44;;;;;;;56.93;24.30;;;-1.40;99.90;;;;;;5027799;28;20217;-67
2022/02/26 03:48:15;;;;;;;54.03;23.27;;;-1.30;99.90;;;;;;5029848;28;20201;-68
2022/02/26 03:50:43;;;;;;;45.77;22.70;;;-1.30;99.90;;;;;;5029481;28;20639;-68
2022/02/26 03:53:12;;;;;;;53.73;23.50;;;-1.30;99.90;;;;;;5035055;28;20598;-67
2022/02/26 03:55:41;;;;;;;56.07;26.03;;;-1.20;99.90;;;;;;5022416;28;20651;-67
2022/02/26 03:58:09;;;;;;;66.37;25.47;;;-1.20;99.90;;;;;;5028574;28;20659;-67
2022/02/26 04:00:39;;;;;;;59.23;25.20;;;-1.30;99.90;;;;;;5026097;28;20209;-67
2022/02/26 04:03:08;;;;;;;53.53;23.50;;;-1.30;99.90;;;;;;5026029;28;20726;-67
2022/02/26 04:05:38;;;;;;;56.60;24.47;;;-1.30;99.90;;;;;;5028544;28;20674;-67
2022/02/26 04:08:06;;;;;;;54.73;23.53;;;-1.30;99.90;;;;;;5029327;28;20241;-67
2022/02/26 04:10:35;;;;;;;46.60;24.33;;;-1.30;99.90;;;;;;5030437;28;20701;-67
2022/02/26 04:13:04;;;;;;;64.27;25.63;;;-1.40;99.90;;;;;;5018226;28;20189;-67
2022/02/26 04:15:32;;;;;;;58.23;25.83;;;-1.30;99.90;;;;;;5022630;28;20273;-67
2022/02/26 04:18:01;;;;;;;60.13;25.60;;;-1.20;99.90;;;;;;5032770;28;20269;-67
2022/02/26 04:20:29;;;;;;;61.37;27.00;;;-1.20;99.90;;;;;;5028676;28;20196;-67
2022/02/26 04:23:00;;;;;;;53.40;26.20;;;-1.20;99.90;;;;;;5020472;28;20210;-67
2022/02/26 04:25:29;;;;;;;52.70;24.87;;;-1.30;99.90;;;;;;5026265;28;20201;-67
2022/02/26 04:27:58;;;;;;;50.40;24.70;;;-1.30;99.90;;;;;;5028993;28;20198;-67
2022/02/26 04:30:26;;;;;;;54.67;24.47;;;-1.30;99.90;;;;;;5025735;28;20212;-67
2022/02/26 04:32:55;;;;;;;52.77;23.03;;;-1.30;99.90;;;;;;5030721;28;20659;-67
2022/02/26 04:35:24;;;;;;;45.47;23.60;;;-1.40;99.90;;;;;;5026298;28;20205;-67
2022/02/26 04:37:53;;;;;;;63.37;25.77;;;-1.50;99.90;;;;;;5033090;28;20721;-67
2022/02/26 04:40:23;;;;;;;64.20;25.80;;;-1.50;99.90;;;;;;5028105;28;20240;-66
2022/02/26 04:42:54;;;;;;;54.23;25.77;;;-1.40;99.90;;;;;;5030244;28;20200;-67
2022/02/26 04:45:24;;;;;;;54.10;25.80;;;-1.30;99.90;;;;;;5023656;28;20255;-67
2022/02/26 04:47:55;;;;;;;61.17;27.97;;;-1.40;99.90;;;;;;5028657;28;20684;-67
2022/02/26 04:50:24;;;;;;;63.77;27.30;;;-1.30;99.90;;;;;;5027166;28;20252;-67
2022/02/26 04:52:52;;;;;;;59.90;26.30;;;-1.30;99.90;;;;;;5028488;28;20203;-67
2022/02/26 04:55:23;;;;;;;56.50;25.53;;;-1.30;99.90;;;;;;5024398;28;20190;-66
2022/02/26 04:57:54;;;;;;;59.83;26.50;;;-1.40;99.90;;;;;;5026600;28;20727;-67
2022/02/26 05:00:23;;;;;;;53.77;25.23;;;-1.40;99.90;;;;;;5023441;28;20197;-67
2022/02/26 05:03:13;;;;;;;58.97;25.40;;;-1.40;99.90;;;;;;5023039;28;20729;-67
2022/02/26 05:06:19;;;;;;;58.07;25.00;;;-1.40;99.90;;;;;;5027393;28;20208;-66
2022/02/26 05:08:47;;;;;;;60.87;26.63;;;-1.30;99.90;;;;;;5026770;28;20266;-67
2022/02/26 05:11:17;;;;;;;60.57;25.67;;;-1.30;99.90;;;;;;5019098;28;20197;-67
2022/02/26 05:13:46;;;;;;;60.83;26.80;;;-1.30;99.90;;;;;;5027780;28;20221;-66
2022/02/26 05:16:14;;;;;;;60.37;27.47;;;-1.20;99.90;;;;;;5014654;28;20272;-67
2022/02/26 05:18:43;;;;;;;63.60;26.67;;;-1.20;99.90;;;;;;5024120;28;20605;-67
2022/02/26 05:21:11;;;;;;;64.17;28.10;;;-1.20;99.90;;;;;;5024704;28;20194;-67
2022/02/26 05:23:42;;;;;;;65.67;27.87;;;-1.20;99.90;;;;;;5028963;28;20621;-66
2022/02/26 05:26:11;;;;;;;63.10;27.30;;;-1.20;99.90;;;;;;5021361;28;20566;-67
2022/02/26 05:28:42;;;;;;;54.93;25.30;;;-1.20;99.90;;;;;;5022222;28;20197;-67
2022/02/26 05:31:10;;;;;;;64.57;27.50;;;-1.20;99.90;;;;;;5030169;28;20213;-67
2022/02/26 05:33:38;;;;;;;69.63;27.70;;;-1.20;99.90;;;;;;5023341;28;20210;-66
2022/02/26 05:36:09;;;;;;;58.77;26.80;;;-1.30;99.90;;;;;;5032133;28;20259;-66
2022/02/26 05:38:38;;;;;;;60.87;27.30;;;-1.30;99.90;;;;;;5029998;28;20248;-66
2022/02/26 05:41:07;;;;;;;63.50;27.87;;;-1.30;99.90;;;;;;5035075;28;20368;-67
2022/02/26 05:43:35;;;;;;;72.80;28.40;;;-1.30;99.90;;;;;;5039260;28;20221;-67
2022/02/26 05:46:05;;;;;;;62.93;27.57;;;-1.20;99.90;;;;;;5021356;28;20197;-66
2022/02/26 05:48:34;;;;;;;67.20;28.47;;;-1.20;99.90;;;;;;5028136;28;20217;-66
2022/02/26 05:51:02;;;;;;;63.40;27.50;;;-1.30;99.90;;;;;;5027040;28;20193;-67
2022/02/26 05:53:31;;;;;;;55.80;27.20;;;-1.30;99.90;;;;;;5026665;28;20261;-66
2022/02/26 05:56:00;;;;;;;65.20;26.83;;;-1.30;99.90;;;;;;5026304;28;20337;-67
2022/02/26 05:58:28;;;;;;;72.40;27.30;;;-1.30;99.90;;;;;;5027823;28;20204;-67
2022/02/26 06:00:56;;;;;;;64.97;26.10;;;-1.40;99.90;;;;;;5026465;28;20285;-66
2022/02/26 06:03:26;;;;;;;62.33;27.23;;;-1.40;99.90;;;;;;5022451;28;20276;-67
2022/02/26 06:05:55;;;;;;;59.00;25.20;;;-1.50;99.90;;;;;;5024531;28;20245;-66
2022/02/26 06:08:23;;;;;;;68.60;27.17;;;-1.50;99.90;;;;;;5029979;28;20260;-67
2022/02/26 06:10:52;;;;;;;58.63;27.23;;;-1.40;99.90;;;;;;5032211;28;20206;-67
2022/02/26 06:13:21;;;;;;;60.33;28.00;;;-1.30;99.90;;;;;;5038657;28;20239;-67
2022/02/26 06:15:49;;;;;;;66.83;28.50;;;-1.20;99.90;;;;;;5022825;28;20856;-67
2022/02/26 06:18:18;;;;;;;69.10;28.57;;;-1.20;99.90;;;;;;5036264;28;20200;-67
2022/02/26 06:20:47;;;;;;;59.77;27.37;;;-1.20;99.90;;;;;;5029475;28;20232;-67
2022/02/26 06:23:16;;;;;;;60.57;29.03;;;-1.30;99.90;;;;;;5011972;28;20247;-67
2022/02/26 06:25:44;;;;;;;69.00;28.43;;;-1.30;99.90;;;;;;5029888;28;20213;-67
2022/02/26 06:28:13;;;;;;;70.03;29.47;;;-1.40;99.90;;;;;;5033658;28;20201;-67
2022/02/26 06:30:41;;;;;;;57.50;27.73;;;-1.40;99.90;;;;;;5022815;28;20264;-66
2022/02/26 06:33:12;;;;;;;63.83;27.90;;;-1.40;99.90;;;;;;5027781;28;20224;-67
2022/02/26 06:35:41;;;;;;;75.10;28.07;;;-1.40;99.90;;;;;;5032554;28;20256;-66
2022/02/26 06:38:11;;;;;;;68.00;29.03;;;-1.30;99.90;;;;;;5039987;28;20280;-66
2022/02/26 06:40:40;;;;;;;67.60;29.03;;;-1.20;99.90;;;;;;5030936;28;20197;-67
2022/02/26 06:43:09;;;;;;;71.00;28.83;;;-1.30;99.90;;;;;;5039558;28;20231;-66
2022/02/26 06:45:37;;;;;;;65.90;29.07;;;-1.20;99.90;;;;;;5025091;28;20251;-66
2022/02/26 06:48:06;;;;;;;61.97;27.97;;;-1.20;99.90;;;;;;5029594;28;20197;-67
2022/02/26 06:50:34;;;;;;;64.67;29.03;;;-1.30;99.90;;;;;;5036473;28;20197;-67
2022/02/26 06:53:04;;;;;;;68.43;29.70;;;-1.30;99.90;;;;;;5019933;28;20255;-66
2022/02/26 06:55:33;;;;;;;59.37;28.83;;;-1.30;99.90;;;;;;5020552;28;20614;-67
2022/02/26 06:58:02;;;;;;;67.97;29.40;;;-1.30;99.90;;;;;;5026292;28;20198;-67
2022/02/26 07:00:33;;;;;;;58.80;27.87;;;-1.30;99.90;;;;;;5036309;28;20211;-67
2022/02/26 07:03:01;;;;;;;74.00;29.77;;;-1.30;99.90;;;;;;5022785;28;20198;-66
2022/02/26 07:05:30;;;;;;;69.03;30.83;;;-1.30;99.90;;;;;;5032168;28;20251;-66
2022/02/26 07:07:58;;;;;;;70.93;32.50;;;-1.20;99.90;;;;;;5034794;28;20248;-67
2022/02/26 07:10:27;;;;;;;66.23;30.13;;;-1.00;99.90;;;;;;5034590;28;20289;-67
2022/02/26 07:12:57;;;;;;;66.33;31.03;;;-0.90;99.90;;;;;;5022684;28;20206;-67
2022/02/26 07:15:25;;;;;;;74.40;31.27;;;-0.80;99.90;;;;;;5029879;28;20236;-66
2022/02/26 07:17:54;;;;;;;67.00;30.47;;;-0.70;99.90;;;;;;5035035;28;20202;-66
2022/02/26 07:20:22;;;;;;;67.07;31.03;;;-0.60;99.90;;;;;;5024296;28;20201;-67
2022/02/26 07:22:50;;;;;;;76.60;31.47;;;-0.50;99.90;;;;;;5016077;28;20725;-66
2022/02/26 07:25:19;;;;;;;81.80;31.33;;;-0.50;99.90;;;;;;5029010;28;20303;-67
2022/02/26 07:27:48;;;;;;;75.87;30.83;;;-0.40;99.90;;;;;;5027397;28;20267;-67
2022/02/26 07:30:17;;;;;;;70.80;32.50;;;-0.40;99.90;;;;;;5014569;28;20197;-66
2022/02/26 07:32:46;;;;;;;73.03;32.30;;;-0.30;99.90;;;;;;5026034;28;20194;-66
2022/02/26 07:35:14;;;;;;;72.30;34.07;;;-0.30;99.90;;;;;;5037743;28;20189;-66
2022/02/26 07:37:44;;;;;;;74.27;33.50;;;-0.20;99.90;;;;;;5026537;28;20236;-66
2022/02/26 07:40:13;;;;;;;72.40;34.03;;;-0.10;99.90;;;;;;5025261;28;20247;-67
2022/02/26 07:42:42;;;;;;;81.87;35.10;;;0.10;99.90;;;;;;5012221;28;20201;-67
2022/02/26 07:45:10;;;;;;;82.03;35.87;;;0.40;99.90;;;;;;5025952;28;20256;-67
2022/02/26 07:47:40;;;;;;;78.83;39.07;;;0.60;99.90;;;;;;5029103;28;20216;-67
2022/02/26 07:50:10;;;;;;;85.30;38.93;;;0.90;99.90;;;;;;5028700;28;20217;-67
2022/02/26 07:52:38;;;;;;;75.90;39.50;;;1.30;99.90;;;;;;5022021;28;20216;-67
2022/02/26 07:55:07;;;;;;;78.37;37.20;;;1.50;99.90;;;;;;5023594;28;20217;-68
2022/02/26 07:57:36;;;;;;;73.60;36.17;;;1.40;99.90;;;;;;5031474;28;20258;-68
2022/02/26 08:00:06;;;;;;;68.23;35.13;;;1.50;99.90;;;;;;5023904;28;20201;-68
2022/02/26 08:02:35;;;;;;;69.53;33.37;;;1.70;99.90;;;;;;5004999;28;20588;-68
2022/02/26 08:05:06;;;;;;;54.87;31.60;;;1.80;99.90;;;;;;5030497;28;20232;-68
2022/02/26 08:07:34;;;;;;;69.13;32.50;;;1.80;99.90;;;;;;5013643;28;20710;-68
2022/02/26 08:10:03;;;;;;;56.17;29.90;;;1.80;99.90;;;;;;5033026;28;20193;-68
2022/02/26 08:12:31;;;;;;;55.63;29.23;;;1.80;99.90;;;;;;5020875;28;20194;-68
2022/02/26 08:15:00;;;;;;;57.03;29.63;;;2.00;99.90;;;;;;5024078;28;20201;-68
2022/02/26 08:17:28;;;;;;;62.43;30.40;;;2.00;99.90;;;;;;5026120;28;20198;-68
2022/02/26 08:19:57;;;;;;;58.23;28.27;;;2.30;99.90;;;;;;5037312;28;20197;-68
2022/02/26 08:22:26;;;;;;;48.93;25.43;;;2.60;99.90;;;;;;5030725;28;20228;-68
2022/02/26 08:24:55;;;;;;;38.80;22.87;;;2.80;99.90;;;;;;5022831;28;20209;-68
2022/02/26 08:27:23;;;;;;;42.20;22.50;;;3.20;99.90;;;;;;5018381;28;20742;-68
2022/02/26 08:29:51;;;;;;;41.20;20.63;;;3.40;99.90;;;;;;5024213;28;20251;-68
2022/02/26 08:32:20;;;;;;;36.73;19.53;;;3.70;99.90;;;;;;5027749;28;20208;-68
2022/02/26 08:34:48;;;;;;;39.30;19.60;;;3.90;99.90;;;;;;5026263;28;20603;-68
2022/02/26 08:37:17;;;;;;;36.97;17.87;;;4.10;99.90;;;;;;5028173;28;20193;-68
2022/02/26 08:39:48;;;;;;;30.63;16.70;;;4.20;99.90;;;;;;5034172;28;20571;-69
2022/02/26 08:42:16;;;;;;;33.40;16.97;;;4.50;99.90;;;;;;5022282;28;20205;-68
2022/02/26 08:44:44;;;;;;;24.60;15.70;;;4.70;99.90;;;;;;5024296;28;20205;-68
2022/02/26 08:47:13;;;;;;;29.33;15.23;;;5.10;99.90;;;;;;5022042;28;20212;-68
2022/02/26 08:49:42;;;;;;;35.90;16.07;;;5.30;99.90;;;;;;5031406;28;20196;-68
2022/02/26 08:52:10;;;;;;;36.60;15.20;;;5.40;99.90;;;;;;5025877;28;20626;-68
2022/02/26 08:54:38;;;;;;;30.90;15.17;;;5.60;99.90;;;;;;5023948;28;20241;-68
2022/02/26 08:57:08;;;;;;;30.77;15.37;;;5.80;99.90;;;;;;5034632;28;20196;-68
2022/02/26 08:59:37;;;;;;;25.77;15.03;;;5.70;99.90;;;;;;5031807;28;20247;-68
2022/02/26 09:02:09;;;;;;;31.57;15.27;;;5.80;99.90;;;;;;5022412;28;20201;-68
2022/02/26 09:04:38;;;;;;;32.53;14.90;;;6.00;99.90;;;;;;5028333;28;20196;-68
2022/02/26 09:07:09;;;;;;;28.73;15.20;;;6.30;99.90;;;;;;5021255;28;20275;-68
2022/02/26 09:09:37;;;;;;;26.73;14.73;;;6.50;99.90;;;;;;5034810;28;20200;-69
2022/02/26 09:12:08;;;;;;;35.43;14.90;;;6.90;99.90;;;;;;5035214;28;20193;-69
2022/02/26 09:14:37;;;;;;;27.37;14.73;;;7.30;99.90;;;;;;5036888;28;20204;-69
2022/02/26 09:17:06;;;;;;;28.83;13.50;;;7.50;99.90;;;;;;5044208;28;20262;-69
2022/02/26 09:19:36;;;;;;;30.00;13.13;;;7.70;99.90;;;;;;5023135;28;20197;-69
2022/02/26 09:22:04;;;;;;;27.13;13.07;;;7.70;99.90;;;;;;5026115;28;20197;-68
2022/02/26 09:24:33;;;;;;;33.03;12.80;;;7.70;99.90;;;;;;5024139;28;20209;-68
2022/02/26 09:27:02;;;;;;;24.07;12.53;;;7.90;99.90;;;;;;5037050;28;20268;-68
2022/02/26 09:29:32;;;;;;;24.80;12.50;;;8.00;99.90;;;;;;5030860;28;20197;-67
2022/02/26 09:32:01;;;;;;;23.67;12.13;;;8.20;99.90;;;;;;5028596;28;20237;-68
2022/02/26 09:34:29;;;;;;;23.20;12.10;;;8.20;99.90;;;;;;5030497;28;20200;-67
2022/02/26 09:36:58;;;;;;;26.37;12.17;;;8.50;99.90;;;;;;5027901;28;20647;-67
2022/02/26 09:39:27;;;;;;;22.03;10.43;;;9.00;99.90;;;;;;5030632;28;20660;-68
2022/02/26 09:41:57;;;;;;;24.40;10.63;;;9.10;99.90;;;;;;5027262;28;20201;-67
2022/02/26 09:44:26;;;;;;;24.13;10.10;;;9.30;99.90;;;;;;5028046;28;20188;-68
2022/02/26 09:46:58;;;;;;;23.23;10.50;;;9.30;99.90;;;;;;5032130;28;20629;-67
2022/02/26 09:49:27;;;;;;;28.53;10.30;;;9.20;99.90;;;;;;5029364;28;20200;-68
2022/02/26 09:51:59;;;;;;;30.50;9.73;;;9.30;99.90;;;;;;5049068;28;20188;-68
2022/02/26 09:54:28;;;;;;;20.30;9.87;;;9.40;99.90;;;;;;5028738;28;20182;-68
2022/02/26 09:56:56;;;;;;;19.63;9.03;;;9.60;99.90;;;;;;5017555;28;20194;-68
2022/02/26 09:59:25;;;;;;;19.63;8.40;;;9.90;99.90;;;;;;5026978;28;20201;-68
2022/02/26 10:02:07;;;;;;;19.03;7.27;;;10.10;99.90;;;;;;5033834;28;20209;-68
2022/02/26 10:04:36;;;;;;;20.47;7.07;;;10.00;99.90;;;;;;5031001;28;20198;-68
2022/02/26 10:07:17;;;;;;;26.03;7.53;;;9.90;99.90;;;;;;5029481;28;20229;-69
2022/02/26 10:09:46;;;;;;;14.70;7.03;;;9.90;99.90;;;;;;5035796;28;20190;-69
2022/02/26 10:12:24;;;;;;;14.50;6.57;;;10.00;99.90;;;;;;5038611;28;20239;-68
2022/02/26 10:14:55;;;;;;;20.07;7.10;;;10.30;99.90;;;;;;5022026;28;20201;-68
2022/02/26 10:17:31;;;;;;;22.67;7.50;;;10.50;99.90;;;;;;5027261;28;20185;-69
2022/02/26 10:20:14;;;;;;;18.13;6.83;;;10.60;99.90;;;;;;5040881;28;20265;-69
2022/02/26 10:22:51;;;;;;;23.03;7.50;;;10.90;99.90;;;;;;5027973;28;20198;-69
2022/02/26 10:25:22;;;;;;;18.77;7.40;;;11.00;99.90;;;;;;5027081;28;20356;-69
2022/02/26 10:27:52;;;;;;;19.03;7.10;;;10.70;99.90;;;;;;5036773;28;20220;-69
2022/02/26 10:30:26;;;;;;;19.63;7.97;;;11.00;99.90;;;;;;5031209;28;20281;-69
2022/02/26 10:33:10;;;;;;;21.00;7.80;;;11.30;99.90;;;;;;5036669;28;20233;-69
2022/02/26 10:35:44;;;;;;;18.30;7.83;;;11.40;99.90;;;;;;5025786;28;20280;-69
2022/02/26 10:38:21;;;;;;;23.43;7.83;;;11.80;99.90;;;;;;5034383;28;20264;-69
2022/02/26 10:41:00;;;;;;;19.37;7.53;;;11.40;99.90;;;;;;5029253;28;20204;-68
2022/02/26 10:43:44;;;;;;;17.43;7.20;;;11.30;99.90;;;;;;5035737;28;20233;-69
2022/02/26 10:46:20;;;;;;;17.83;8.17;;;11.20;99.90;;;;;;5019845;28;20190;-69
2022/02/26 10:48:52;;;;;;;18.03;7.67;;;11.10;99.90;;;;;;5024566;28;20255;-69
2022/02/26 10:51:23;;;;;;;20.93;7.57;;;11.10;99.90;;;;;;5025754;28;20205;-69
2022/02/26 10:53:52;;;;;;;19.57;7.17;;;11.40;99.90;;;;;;5030834;28;20268;-69
2022/02/26 10:56:29;;;;;;;14.57;6.70;;;11.40;99.90;;;;;;5024958;28;20281;-70
2022/02/26 10:58:58;;;;;;;14.47;6.23;;;11.50;99.90;;;;;;5022980;28;20197;-70
2022/02/26 11:01:26;;;;;;;18.53;6.97;;;11.60;99.90;;;;;;5025875;28;20200;-70
2022/02/26 11:03:57;;;;;;;18.90;7.53;;;11.70;99.90;;;;;;5025094;28;20247;-70
2022/02/26 11:06:27;;;;;;;17.90;7.43;;;12.00;99.90;;;;;;5032596;28;20209;-70
2022/02/26 11:08:56;;;;;;;17.63;6.40;;;11.90;99.90;;;;;;5039631;28;20228;-70
2022/02/26 11:11:25;;;;;;;24.20;6.53;;;11.70;99.90;;;;;;5028554;28;20214;-70
2022/02/26 11:13:56;;;;;;;17.67;6.83;;;11.90;99.90;;;;;;5032968;28;20212;-70
2022/02/26 11:16:27;;;;;;;16.37;7.63;;;11.80;99.90;;;;;;5030261;28;20276;-70
2022/02/26 11:18:59;;;;;;;20.97;7.10;;;11.80;99.90;;;;;;5041473;28;20204;-70
2022/02/26 11:21:28;;;;;;;22.53;8.10;;;11.80;99.90;;;;;;5026523;28;20206;-70
2022/02/26 11:23:57;;;;;;;17.67;7.67;;;11.70;99.90;;;;;;5030744;28;20228;-70
2022/02/26 11:26:26;;;;;;;20.40;8.20;;;11.70;99.90;;;;;;5035710;28;20205;-70
2022/02/26 11:29:00;;;;;;;21.17;8.33;;;11.70;99.90;;;;;;5030558;28;20339;-70
2022/02/26 11:31:34;;;;;;;21.77;8.27;;;11.50;99.90;;;;;;5023589;28;20190;-70
2022/02/26 11:34:05;;;;;;;24.47;9.40;;;12.00;99.90;;;;;;5025888;28;20674;-71
2022/02/26 11:36:47;;;;;;;24.53;9.10;;;12.50;99.90;;;;;;5033272;28;20196;-70
2022/02/26 11:39:23;;;;;;;25.03;9.30;;;12.60;99.90;;;;;;5024532;28;20785;-70
2022/02/26 11:42:12;;;;;;;22.77;9.57;;;12.70;99.90;;;;;;5030700;28;20232;-71
2022/02/26 11:44:42;;;;;;;20.83;8.77;;;12.70;99.90;;;;;;5030689;28;20216;-71
2022/02/26 11:47:15;;;;;;;14.90;5.80;;;12.50;99.90;;;;;;5032229;28;20212;-71
2022/02/26 11:49:58;;;;;;;17.50;6.83;;;12.10;99.90;;;;;;5025732;28;20255;-70
2022/02/26 11:52:47;;;;;;;15.43;6.60;;;11.60;99.90;;;;;;5038433;28;20242;-70
2022/02/26 11:55:32;;;;;;;19.63;5.50;;;11.40;99.90;;;;;;5030247;28;20206;-70
2022/02/26 11:58:04;;;;;;;15.20;6.53;;;11.50;99.90;;;;;;5027437;28;20197;-70
2022/02/26 12:00:37;;;;;;;17.17;6.53;;;11.60;99.90;;;;;;5023162;28;20190;-71
2022/02/26 12:03:33;;;;;;;16.33;6.10;;;11.90;99.90;;;;;;5031193;28;20648;-70
2022/02/26 12:06:40;;;;;;;21.23;7.10;;;11.60;99.90;;;;;;5018246;28;20746;-70
2022/02/26 12:09:12;;;;;;;14.73;6.80;;;11.60;99.90;;;;;;5028396;28;20565;-70
2022/02/26 12:11:44;;;;;;;16.63;7.13;;;11.60;99.90;;;;;;5009658;28;20205;-71
2022/02/26 12:14:25;;;;;;;18.23;6.43;;;11.60;99.90;;;;;;5025361;28;20247;-71
2022/02/26 12:17:02;;;;;;;14.00;5.90;;;11.50;99.90;;;;;;5031571;28;20212;-71
2022/02/26 12:19:31;;;;;;;15.07;6.43;;;11.40;99.90;;;;;;5035945;28;20608;-71
2022/02/26 12:22:03;;;;;;;15.43;5.30;;;11.40;99.90;;;;;;5027656;28;20856;-71
2022/02/26 12:24:34;;;;;;;13.40;5.50;;;11.40;99.90;;;;;;5013554;28;20578;-71
2022/02/26 12:27:05;;;;;;;10.73;5.80;;;11.60;99.90;;;;;;5028722;28;20726;-71
2022/02/26 12:29:54;;;;;;;16.90;5.57;;;11.20;99.90;;;;;;5032010;28;20178;-70
2022/02/26 12:32:27;;;;;;;16.43;5.27;;;11.30;99.90;;;;;;5022750;28;20627;-71
2022/02/26 12:35:05;;;;;;;14.27;5.40;;;11.30;99.90;;;;;;5028860;28;20212;-71
2022/02/26 12:37:37;;;;;;;15.00;4.83;;;11.70;99.90;;;;;;5024773;28;20277;-71
2022/02/26 12:40:08;;;;;;;16.67;4.87;;;11.70;99.90;;;;;;5029599;28;20549;-71
2022/02/26 12:42:39;;;;;;;12.83;4.87;;;11.40;99.90;;;;;;5024916;28;20209;-71
2022/02/26 12:45:09;;;;;;;16.23;5.53;;;11.40;99.90;;;;;;5028276;28;20726;-71
2022/02/26 12:47:38;;;;;;;14.67;5.23;;;11.40;99.90;;;;;;5023290;28;20229;-71
2022/02/26 12:50:09;;;;;;;13.03;5.70;;;11.60;99.90;;;;;;5034429;28;20202;-71